createdAt,value
2022-09-30T00:01:37.911Z,10.84
2022-09-30T00:04:06.149Z,10.82
2022-09-30T00:06:37.317Z,10.73
2022-09-30T00:09:05.438Z,10.73
2022-09-30T00:11:35.273Z,10.76
2022-09-30T00:14:03.183Z,10.79
2022-09-30T00:16:34.138Z,10.77
2022-09-30T00:19:03.918Z,10.77
2022-09-30T00:21:34.101Z,10.83
2022-09-30T00:24:02.515Z,10.71
2022-09-30T00:26:30.166Z,10.75
2022-09-30T00:28:59.360Z,10.75
2022-09-30T00:31:30.367Z,10.72
2022-09-30T00:34:07.255Z,10.76
2022-09-30T00:36:41.410Z,10.76
2022-09-30T00:39:10.992Z,10.78
2022-09-30T00:41:39.289Z,10.73
2022-09-30T00:44:43.509Z,10.81
2022-09-30T00:47:25.897Z,10.73
2022-09-30T00:49:53.618Z,10.71
2022-09-30T00:52:21.161Z,10.74
2022-09-30T00:54:48.836Z,10.68
2022-09-30T00:57:16.314Z,10.69
2022-09-30T00:59:48.717Z,10.73
2022-09-30T01:02:16.743Z,10.66
2022-09-30T01:04:45.798Z,10.67
2022-09-30T01:07:15.168Z,10.64
2022-09-30T01:09:44.595Z,10.56
2022-09-30T01:12:19.368Z,10.54
2022-09-30T01:14:53.267Z,10.50
2022-09-30T01:18:01.840Z,10.50
2022-09-30T01:20:41.117Z,10.53
2022-09-30T01:23:31.506Z,10.49
2022-09-30T01:26:01.859Z,10.50
2022-09-30T01:28:37.991Z,10.46
2022-09-30T01:31:52.995Z,10.56
2022-09-30T01:34:42.963Z,10.51
2022-09-30T01:37:29.544Z,10.52
2022-09-30T01:40:07.974Z,10.48
2022-09-30T01:43:01.836Z,10.51
2022-09-30T01:45:46.630Z,10.42
2022-09-30T01:48:32.301Z,10.40
2022-09-30T01:51:09.745Z,10.37
2022-09-30T01:54:00.926Z,10.40
2022-09-30T01:56:45.026Z,10.31
2022-09-30T01:59:23.511Z,10.27
2022-09-30T02:01:56.826Z,10.24
2022-09-30T02:04:31.381Z,10.19
2022-09-30T02:07:05.493Z,10.12
2022-09-30T02:09:41.191Z,10.12
2022-09-30T02:12:14.850Z,10.03
2022-09-30T02:14:47.543Z,9.98
2022-09-30T02:18:00.665Z,10.06
2022-09-30T02:20:32.970Z,9.99
2022-09-30T02:23:09.590Z,9.92
2022-09-30T02:25:42.952Z,9.91
2022-09-30T02:28:17.448Z,9.86
2022-09-30T02:30:50.315Z,10.00
2022-09-30T02:33:25.959Z,10.03
2022-09-30T02:35:59.005Z,10.01
2022-09-30T02:38:31.635Z,10.02
2022-09-30T02:41:08.512Z,9.92
2022-09-30T02:43:36.180Z,9.94
2022-09-30T02:46:38.708Z,10.01
2022-09-30T02:49:17.549Z,9.95
2022-09-30T02:52:03.440Z,10.07
2022-09-30T02:54:49.379Z,10.01
2022-09-30T02:57:34.266Z,10.08
2022-09-30T03:00:03.549Z,10.09
2022-09-30T03:02:33.053Z,10.15
2022-09-30T03:05:00.910Z,10.18
2022-09-30T03:07:28.328Z,10.22
2022-09-30T03:09:59.170Z,10.20
2022-09-30T03:12:51.551Z,10.13
2022-09-30T03:15:30.427Z,10.15
2022-09-30T03:18:04.015Z,10.09
2022-09-30T03:20:40.037Z,10.02
2022-09-30T03:23:25.375Z,10.06
2022-09-30T03:26:11.157Z,10.01
2022-09-30T03:28:54.282Z,10.00
2022-09-30T03:31:50.922Z,9.94
2022-09-30T03:34:21.547Z,9.88
2022-09-30T03:37:04.445Z,9.90
2022-09-30T03:39:47.083Z,9.87
2022-09-30T03:42:27.177Z,9.87
2022-09-30T03:45:08.355Z,9.85
2022-09-30T03:47:42.805Z,9.87
2022-09-30T03:50:14.742Z,9.80
2022-09-30T03:52:42.770Z,9.77
2022-09-30T03:55:11.849Z,9.74
2022-09-30T03:57:39.462Z,9.77
2022-09-30T04:00:08.098Z,9.74
2022-09-30T04:02:37.784Z,9.74
2022-09-30T04:05:06.480Z,9.71
2022-09-30T04:07:34.222Z,9.70
2022-09-30T04:10:01.685Z,9.72
2022-09-30T04:12:31.146Z,9.69
2022-09-30T04:14:58.614Z,9.83
2022-09-30T04:17:26.002Z,9.86
2022-09-30T04:19:53.502Z,9.93
2022-09-30T04:22:25.564Z,9.94
2022-09-30T04:24:53.897Z,9.94
2022-09-30T04:27:21.354Z,9.94
2022-09-30T04:29:48.852Z,9.98
2022-09-30T04:32:16.266Z,10.06
2022-09-30T04:34:43.796Z,10.09
2022-09-30T04:37:11.332Z,10.22
2022-09-30T04:39:38.875Z,10.33
2022-09-30T04:42:07.210Z,10.36
2022-09-30T04:44:35.454Z,10.32
2022-09-30T04:47:03.013Z,10.35
2022-09-30T04:49:30.468Z,10.45
2022-09-30T04:51:57.875Z,10.54
2022-09-30T04:54:25.280Z,10.54
2022-09-30T04:56:53.011Z,10.66
2022-09-30T04:59:20.572Z,10.64
2022-09-30T05:01:48.106Z,10.66
2022-09-30T05:04:16.708Z,10.70
2022-09-30T05:06:44.239Z,10.64
2022-09-30T05:09:11.712Z,10.71
2022-09-30T05:11:42.433Z,10.71
2022-09-30T05:14:10.238Z,10.60
2022-09-30T05:16:37.761Z,10.65
2022-09-30T05:19:05.395Z,10.67
2022-09-30T05:21:32.779Z,10.63
2022-09-30T05:24:00.376Z,10.60
2022-09-30T05:26:28.158Z,10.48
2022-09-30T05:28:55.650Z,10.60
2022-09-30T05:31:23.135Z,10.61
2022-09-30T05:33:53.553Z,10.63
2022-09-30T05:36:24.598Z,10.60
2022-09-30T05:38:53.512Z,10.67
2022-09-30T05:41:21.152Z,10.75
2022-09-30T05:43:48.711Z,10.80
2022-09-30T05:46:18.611Z,10.88
2022-09-30T05:48:46.982Z,10.93
2022-09-30T05:51:14.701Z,10.90
2022-09-30T05:53:42.287Z,11.05
2022-09-30T05:56:10.983Z,11.20
2022-09-30T05:58:40.412Z,11.34
2022-09-30T06:01:19.495Z,11.41
2022-09-30T06:03:47.629Z,11.54
2022-09-30T06:06:16.050Z,11.65
2022-09-30T06:08:44.588Z,11.73
2022-09-30T06:11:16.750Z,11.68
2022-09-30T06:13:45.625Z,11.80
2022-09-30T06:16:13.992Z,11.83
2022-09-30T06:18:42.059Z,12.07
2022-09-30T06:21:12.730Z,12.18
2022-09-30T06:23:40.787Z,12.39
2022-09-30T06:26:09.884Z,12.60
2022-09-30T06:28:38.343Z,12.64
2022-09-30T06:31:07.112Z,12.83
2022-09-30T06:33:37.867Z,13.06
2022-09-30T06:36:06.824Z,13.12
2022-09-30T06:38:39.098Z,13.20
2022-09-30T06:41:07.305Z,13.41
2022-09-30T06:43:34.752Z,13.56
2022-09-30T06:46:11.686Z,13.81
2022-09-30T06:48:42.545Z,13.83
2022-09-30T06:51:12.950Z,13.95
2022-09-30T06:53:40.424Z,13.95
2022-09-30T06:56:08.304Z,13.96
2022-09-30T06:58:35.845Z,14.13
2022-09-30T07:01:05.602Z,14.28
2022-09-30T07:03:35.667Z,14.53
2022-09-30T07:06:05.757Z,14.94
2022-09-30T07:08:35.591Z,15.25
2022-09-30T07:11:12.083Z,15.77
2022-09-30T07:13:39.697Z,16.19
2022-09-30T07:16:07.341Z,16.40
2022-09-30T07:18:34.822Z,16.52
2022-09-30T07:21:02.259Z,16.55
2022-09-30T07:23:30.331Z,16.90
2022-09-30T07:26:04.538Z,17.50
2022-09-30T07:28:36.205Z,18.14
2022-09-30T07:31:31.973Z,18.90
2022-09-30T07:34:11.494Z,19.24
2022-09-30T07:36:42.163Z,19.16
2022-09-30T07:39:11.182Z,19.09
2022-09-30T07:41:40.216Z,19.10
2022-09-30T07:44:13.342Z,19.21
2022-09-30T07:46:42.104Z,19.48
2022-09-30T07:49:14.847Z,19.57
2022-09-30T07:51:46.331Z,19.71
2022-09-30T07:54:17.794Z,20.04
2022-09-30T07:57:08.822Z,20.47
2022-09-30T07:59:38.603Z,20.70
2022-09-30T08:02:07.484Z,20.45
2022-09-30T08:04:36.538Z,20.09
2022-09-30T08:07:05.665Z,19.70
2022-09-30T08:09:33.377Z,19.38
2022-09-30T08:12:03.567Z,19.02
2022-09-30T08:14:31.218Z,18.62
2022-09-30T08:17:00.655Z,18.08
2022-09-30T08:19:30.496Z,17.63
2022-09-30T08:21:58.333Z,17.62
2022-09-30T08:24:27.139Z,17.81
2022-09-30T08:26:55.910Z,18.35
2022-09-30T08:32:11.303Z,19.54
2022-09-30T08:34:38.763Z,19.99
2022-09-30T08:37:09.264Z,20.08
2022-09-30T08:39:40.189Z,20.13
2022-09-30T08:42:36.100Z,19.80
2022-09-30T08:45:13.463Z,19.24
2022-09-30T08:47:47.206Z,18.69
2022-09-30T08:50:14.716Z,18.36
2022-09-30T08:52:49.292Z,18.13
2022-09-30T08:55:30.961Z,18.42
2022-09-30T08:57:58.578Z,18.52
2022-09-30T09:00:26.296Z,18.73
2022-09-30T09:02:59.477Z,18.96
2022-09-30T09:05:54.455Z,19.20
2022-09-30T09:08:49.159Z,19.25
2022-09-30T09:11:43.563Z,20.57
2022-09-30T09:14:43.594Z,21.44
2022-09-30T09:17:15.296Z,21.32
2022-09-30T09:19:53.040Z,21.06
2022-09-30T09:22:25.205Z,20.58
2022-09-30T09:24:53.684Z,20.03
2022-09-30T09:30:18.167Z,19.16
2022-09-30T09:32:53.453Z,18.71
2022-09-30T09:35:45.616Z,18.58
2022-09-30T09:38:36.027Z,18.44
2022-09-30T09:41:08.827Z,18.25
2022-09-30T09:44:11.589Z,18.50
2022-09-30T09:46:44.686Z,18.49
2022-09-30T09:49:26.650Z,18.41
2022-09-30T09:52:15.123Z,18.34
2022-09-30T09:54:48.495Z,18.21
2022-09-30T09:57:24.905Z,18.26
2022-09-30T10:00:22.348Z,18.67
2022-09-30T10:03:12.387Z,19.42
2022-09-30T10:05:40.137Z,19.51
2022-09-30T10:08:22.049Z,19.28
2022-09-30T10:10:55.515Z,19.16
2022-09-30T10:13:27.875Z,19.52
2022-09-30T10:16:00.814Z,20.48
2022-09-30T10:18:34.229Z,20.90
2022-09-30T10:21:06.913Z,21.96
2022-09-30T10:23:41.368Z,23.18
2022-09-30T10:26:14.660Z,22.98
2022-09-30T10:28:56.706Z,22.03
2022-09-30T10:31:29.931Z,20.99
2022-09-30T10:34:04.421Z,20.30
2022-09-30T10:36:36.997Z,19.95
2022-09-30T10:39:30.642Z,19.78
2022-09-30T10:42:15.876Z,19.47
2022-09-30T10:44:47.711Z,19.23
2022-09-30T10:47:19.505Z,19.22
2022-09-30T10:49:54.586Z,19.00
2022-09-30T10:52:28.854Z,18.79
2022-09-30T10:54:58.669Z,18.52
2022-09-30T10:57:36.032Z,18.45
2022-09-30T11:00:23.671Z,18.80
2022-09-30T11:02:57.477Z,19.73
2022-09-30T11:05:31.089Z,20.24
2022-09-30T11:08:30.604Z,20.26
2022-09-30T11:11:14.234Z,20.57
2022-09-30T11:14:02.854Z,20.63
2022-09-30T11:16:57.741Z,20.64
2022-09-30T11:19:44.440Z,21.79
2022-09-30T11:22:33.034Z,21.95
2022-09-30T11:25:00.806Z,21.31
2022-09-30T11:28:04.711Z,20.55
2022-09-30T11:31:07.533Z,19.97
2022-09-30T11:33:48.455Z,19.79
2022-09-30T11:36:46.098Z,19.75
2022-09-30T11:39:32.210Z,19.96
2022-09-30T11:42:30.078Z,20.44
2022-09-30T11:45:36.998Z,20.56
2022-09-30T11:48:22.519Z,20.65
2022-09-30T11:51:09.882Z,20.71
2022-09-30T11:53:37.163Z,21.20
2022-09-30T11:56:07.323Z,20.90
2022-09-30T11:58:43.647Z,20.56
2022-09-30T12:01:22.653Z,20.20
2022-09-30T12:04:13.007Z,19.90
2022-09-30T12:06:55.063Z,19.33
2022-09-30T12:09:37.591Z,19.06
2022-09-30T12:12:16.780Z,18.90
2022-09-30T12:14:51.866Z,18.82
2022-09-30T12:17:34.141Z,18.71
2022-09-30T12:20:32.423Z,18.77
2022-09-30T12:23:40.730Z,18.87
2022-09-30T12:26:08.811Z,18.87
2022-09-30T12:29:22.080Z,18.94
2022-09-30T12:32:26.524Z,18.76
2022-09-30T12:35:51.089Z,18.65
2022-09-30T12:38:25.884Z,18.46
2022-09-30T12:40:56.246Z,18.37
2022-09-30T12:43:30.415Z,18.35
2022-09-30T12:46:19.576Z,18.42
2022-09-30T12:48:58.216Z,18.45
2022-09-30T12:51:34.278Z,18.57
2022-09-30T12:54:07.470Z,18.91
2022-09-30T12:56:38.589Z,19.07
2022-09-30T12:59:07.647Z,19.16
2022-09-30T13:01:39.687Z,19.02
2022-09-30T13:04:07.120Z,18.97
2022-09-30T13:06:55.298Z,19.00
2022-09-30T13:09:37.188Z,18.82
2022-09-30T13:12:04.598Z,18.67
2022-09-30T13:14:35.157Z,18.43
2022-09-30T13:17:08.334Z,18.36
2022-09-30T13:19:46.186Z,18.20
2022-09-30T13:22:18.755Z,18.06
2022-09-30T13:25:02.982Z,18.00
2022-09-30T13:27:38.246Z,17.76
2022-09-30T13:30:17.453Z,17.67
2022-09-30T13:32:59.495Z,17.57
2022-09-30T13:35:51.479Z,17.51
2022-09-30T13:38:34.872Z,17.47
2022-09-30T13:41:18.196Z,17.43
2022-09-30T13:44:16.752Z,17.44
2022-09-30T13:46:51.936Z,17.26
2022-09-30T13:49:36.111Z,17.24
2022-09-30T13:52:19.518Z,17.20
2022-09-30T13:54:49.121Z,17.13
2022-09-30T13:57:31.866Z,17.11
2022-09-30T14:00:15.193Z,17.11
2022-09-30T14:02:51.890Z,17.08
2022-09-30T14:05:40.576Z,17.11
2022-09-30T14:08:28.171Z,17.03
2022-09-30T14:11:36.940Z,17.05
2022-09-30T14:14:27.437Z,17.15
2022-09-30T14:17:22.795Z,17.05
2022-09-30T14:20:11.553Z,16.96
2022-09-30T14:22:40.894Z,16.88
2022-09-30T14:25:19.759Z,16.95
2022-09-30T14:28:04.784Z,16.94
2022-09-30T14:30:40.757Z,16.89
2022-09-30T14:33:23.684Z,16.91
2022-09-30T14:35:54.628Z,16.88
2022-09-30T14:38:28.226Z,16.89
2022-09-30T14:41:06.414Z,16.92
2022-09-30T14:43:42.764Z,16.86
2022-09-30T14:46:50.200Z,16.94
2022-09-30T14:49:28.735Z,16.82
2022-09-30T14:51:57.511Z,16.79
2022-09-30T14:54:29.232Z,16.73
2022-09-30T14:56:59.294Z,16.77
2022-09-30T14:59:31.447Z,16.75
2022-09-30T15:02:00.803Z,16.68
2022-09-30T15:04:32.916Z,16.67
2022-09-30T15:07:06.986Z,16.71
2022-09-30T15:09:40.033Z,16.63
2022-09-30T15:12:13.302Z,16.60
2022-09-30T15:14:52.320Z,16.63
2022-09-30T15:17:23.564Z,16.58
2022-09-30T15:19:51.325Z,16.52
2022-09-30T15:22:20.959Z,16.51
2022-09-30T15:24:50.013Z,16.47
2022-09-30T15:27:30.067Z,16.47
2022-09-30T15:30:04.367Z,16.44
2022-09-30T15:32:36.665Z,16.39
2022-09-30T15:35:14.775Z,16.32
2022-09-30T15:37:43.628Z,16.36
2022-09-30T15:40:39.732Z,16.25
2022-09-30T15:43:14.460Z,16.26
2022-09-30T15:45:48.614Z,16.22
2022-09-30T15:48:16.995Z,16.19
2022-09-30T15:50:50.093Z,16.13
2022-09-30T15:53:25.508Z,16.08
2022-09-30T15:56:15.873Z,16.01
2022-09-30T15:59:02.253Z,16.07
2022-09-30T16:02:02.264Z,16.02
2022-09-30T16:04:29.767Z,15.94
2022-09-30T16:07:00.799Z,15.89
2022-09-30T16:09:30.639Z,15.89
2022-09-30T16:12:03.801Z,15.91
2022-09-30T16:14:35.719Z,15.91
2022-09-30T16:17:05.929Z,15.91
2022-09-30T16:19:33.593Z,15.78
2022-09-30T16:22:01.363Z,15.70
2022-09-30T16:24:29.038Z,15.74
2022-09-30T16:26:58.693Z,15.64
2022-09-30T16:29:27.344Z,15.71
2022-09-30T16:31:56.982Z,15.65
2022-09-30T16:34:24.557Z,15.67
2022-09-30T16:36:53.884Z,15.64
2022-09-30T16:39:21.959Z,15.69
2022-09-30T16:41:54.375Z,15.67
2022-09-30T16:44:24.143Z,15.63
2022-09-30T16:46:51.850Z,15.61
2022-09-30T16:49:19.962Z,15.69
2022-09-30T16:51:47.489Z,15.62
2022-09-30T16:54:15.007Z,15.68
2022-09-30T16:56:42.538Z,15.75
2022-09-30T16:59:17.306Z,15.71
2022-09-30T17:01:45.040Z,15.73
2022-09-30T17:04:15.229Z,15.78
2022-09-30T17:06:44.832Z,15.73
2022-09-30T17:09:12.328Z,15.77
2022-09-30T17:11:40.290Z,15.74
2022-09-30T17:14:07.775Z,15.72
2022-09-30T17:16:36.549Z,15.76
2022-09-30T17:19:04.793Z,15.65
2022-09-30T17:21:32.338Z,15.70
2022-09-30T17:23:59.776Z,15.68
2022-09-30T17:26:28.411Z,15.74
2022-09-30T17:29:08.779Z,15.68
2022-09-30T17:31:42.332Z,15.62
2022-09-30T17:34:09.912Z,15.57
2022-09-30T17:36:37.416Z,15.51
2022-09-30T17:39:06.306Z,15.53
2022-09-30T17:41:53.080Z,15.57
2022-09-30T17:44:21.241Z,15.53
2022-09-30T17:46:48.826Z,15.49
2022-09-30T17:49:21.941Z,15.49
2022-09-30T17:51:51.549Z,15.55
2022-09-30T17:54:19.005Z,15.52
2022-09-30T17:56:46.513Z,15.56
2022-09-30T17:59:15.064Z,15.52
2022-09-30T18:01:42.731Z,15.57
2022-09-30T18:04:10.244Z,15.57
2022-09-30T18:06:39.908Z,15.60
2022-09-30T18:09:07.510Z,15.63
2022-09-30T18:11:39.295Z,15.64
2022-09-30T18:14:11.957Z,15.71
2022-09-30T18:16:40.191Z,15.67
2022-09-30T18:19:08.491Z,15.67
2022-09-30T18:21:37.387Z,15.70
2022-09-30T18:24:06.175Z,15.74
2022-09-30T18:26:36.016Z,15.72
2022-09-30T18:29:04.538Z,15.74
2022-09-30T18:31:37.288Z,15.68
2022-09-30T18:34:06.833Z,15.68
2022-09-30T18:36:35.420Z,15.62
2022-09-30T18:39:03.383Z,15.62
2022-09-30T18:41:33.923Z,15.61
2022-09-30T18:44:03.178Z,15.64
2022-09-30T18:46:31.975Z,15.66
2022-09-30T18:48:59.543Z,15.60
2022-09-30T18:51:27.049Z,15.61
2022-09-30T18:53:59.979Z,15.62
2022-09-30T18:56:32.048Z,15.62
2022-09-30T18:59:04.323Z,15.66
2022-09-30T19:01:34.090Z,15.65
2022-09-30T19:04:03.470Z,15.62
2022-09-30T19:06:31.042Z,15.69
2022-09-30T19:08:58.704Z,15.66
2022-09-30T19:11:26.748Z,15.59
2022-09-30T19:13:56.550Z,15.58
2022-09-30T19:16:26.222Z,15.57
2022-09-30T19:18:55.364Z,15.55
2022-09-30T19:21:22.834Z,15.53
2022-09-30T19:23:50.378Z,15.55
2022-09-30T19:26:17.797Z,15.52
2022-09-30T19:28:45.197Z,15.57
2022-09-30T19:31:17.158Z,15.60
2022-09-30T19:33:55.963Z,15.60
2022-09-30T19:36:26.873Z,15.59
2022-09-30T19:39:08.895Z,15.62
2022-09-30T19:41:38.495Z,15.57
2022-09-30T19:44:05.966Z,15.64
2022-09-30T19:46:33.555Z,15.65
2022-09-30T19:49:01.449Z,15.65
2022-09-30T19:51:33.300Z,15.65
2022-09-30T19:54:06.898Z,15.68
2022-09-30T19:56:36.585Z,15.71
2022-09-30T19:59:04.944Z,15.68
2022-09-30T20:01:34.915Z,15.72
2022-09-30T20:04:05.316Z,15.68
2022-09-30T20:06:34.532Z,15.62
2022-09-30T20:09:06.568Z,15.73
2022-09-30T20:11:36.710Z,15.70
2022-09-30T20:14:25.238Z,15.69
2022-09-30T20:16:54.368Z,15.70
2022-09-30T20:19:23.160Z,15.63
2022-09-30T20:21:52.253Z,15.57
2022-09-30T20:24:20.149Z,15.62
2022-09-30T20:26:47.934Z,15.54
2022-09-30T20:29:15.927Z,15.51
2022-09-30T20:31:44.161Z,15.58
2022-09-30T20:34:13.836Z,15.60
2022-09-30T20:36:42.441Z,15.63
2022-09-30T20:39:10.549Z,15.63
2022-09-30T20:41:39.188Z,15.67
2022-09-30T20:44:10.632Z,15.64
2022-09-30T20:46:39.447Z,15.62
2022-09-30T20:49:07.341Z,15.66
2022-09-30T20:51:35.248Z,15.65
2022-09-30T20:54:03.043Z,15.70
2022-09-30T20:56:49.614Z,15.73
2022-09-30T20:59:18.107Z,15.74
2022-09-30T21:01:45.627Z,15.75
2022-09-30T21:04:13.105Z,15.76
2022-09-30T21:06:40.535Z,15.79
2022-09-30T21:09:12.196Z,15.80
2022-09-30T21:11:42.556Z,15.82
2022-09-30T21:14:10.297Z,15.77
2022-09-30T21:16:37.895Z,15.78
2022-09-30T21:19:05.642Z,15.75
2022-09-30T21:21:33.186Z,15.75
2022-09-30T21:24:01.213Z,15.76
2022-09-30T21:26:28.748Z,15.72
2022-09-30T21:28:56.220Z,15.75
2022-09-30T21:31:27.355Z,15.77
2022-09-30T21:33:58.537Z,15.73
2022-09-30T21:36:27.995Z,15.74
2022-09-30T21:39:03.704Z,15.79
2022-09-30T21:41:32.827Z,15.75
2022-09-30T21:44:01.507Z,15.78
2022-09-30T21:46:29.645Z,15.74
2022-09-30T21:49:06.058Z,15.82
2022-09-30T21:51:35.569Z,15.72
2022-09-30T21:54:03.378Z,15.69
2022-09-30T21:56:30.997Z,15.74
2022-09-30T21:58:58.630Z,15.71
2022-09-30T22:01:26.165Z,15.71
2022-09-30T22:03:53.737Z,15.67
2022-09-30T22:06:21.178Z,15.69
2022-09-30T22:08:48.829Z,15.67
2022-09-30T22:11:25.280Z,15.64
2022-09-30T22:13:56.864Z,15.69
2022-09-30T22:16:31.016Z,15.62
2022-09-30T22:19:00.921Z,15.61
2022-09-30T22:21:33.691Z,15.62
2022-09-30T22:24:03.446Z,15.58
2022-09-30T22:26:33.007Z,15.55
2022-09-30T22:29:03.519Z,15.52
2022-09-30T22:31:32.694Z,15.57
2022-09-30T22:34:21.548Z,15.56
2022-09-30T22:37:07.790Z,15.55
2022-09-30T22:39:35.528Z,15.54
2022-09-30T22:42:03.519Z,15.51
2022-09-30T22:44:35.625Z,15.45
2022-09-30T22:47:03.881Z,15.48
2022-09-30T22:49:34.523Z,15.53
2022-09-30T22:52:03.840Z,15.52
2022-09-30T22:54:31.406Z,15.52
2022-09-30T22:57:01.869Z,15.49
2022-09-30T22:59:29.982Z,15.48
2022-09-30T23:01:57.995Z,15.44
2022-09-30T23:04:26.986Z,15.41
2022-09-30T23:06:57.752Z,15.48
2022-09-30T23:09:25.386Z,15.46
2022-09-30T23:11:54.521Z,15.42
2022-09-30T23:14:22.868Z,15.50
2022-09-30T23:16:51.291Z,15.50
2022-09-30T23:19:19.871Z,15.52
2022-09-30T23:21:47.565Z,15.48
2022-09-30T23:24:15.245Z,15.53
2022-09-30T23:26:43.568Z,15.51
2022-09-30T23:29:13.596Z,15.50
2022-09-30T23:31:42.080Z,15.47
2022-09-30T23:34:10.065Z,15.47
2022-09-30T23:36:40.245Z,15.53
2022-09-30T23:39:21.614Z,15.65
2022-09-30T23:41:51.022Z,15.59
2022-09-30T23:44:19.213Z,15.55
2022-09-30T23:47:07.152Z,15.53
2022-09-30T23:49:36.077Z,15.57
2022-09-30T23:52:09.224Z,15.58
2022-09-30T23:54:41.736Z,15.57
2022-09-30T23:57:10.713Z,15.54
2022-09-30T23:59:38.726Z,15.52
